createdAt,value
2022-08-08T00:02:03.078Z,60.76
2022-08-08T00:04:48.938Z,61.03
2022-08-08T00:07:48.541Z,60.63
2022-08-08T00:14:14.840Z,60.46
2022-08-08T00:17:58.646Z,60.88
2022-08-08T00:20:59.373Z,60.70
2022-08-08T00:23:47.754Z,60.60
2022-08-08T00:26:31.190Z,60.94
2022-08-08T00:30:15.589Z,60.82
2022-08-08T00:33:24.676Z,60.55
2022-08-08T00:36:27.362Z,60.24
2022-08-08T00:41:05.834Z,60.10
2022-08-08T00:42:36.679Z,60.11
2022-08-08T00:45:34.971Z,59.57
2022-08-08T00:48:59.057Z,59.29
2022-08-08T00:51:46.941Z,59.13
2022-08-08T00:55:12.284Z,59.18
2022-08-08T00:58:14.621Z,59.38
2022-08-08T01:00:57.901Z,59.36
2022-08-08T01:04:01.460Z,59.33
2022-08-08T01:07:10.757Z,59.27
2022-08-08T01:10:22.428Z,58.84
2022-08-08T01:13:38.080Z,59.13
2022-08-08T01:16:34.046Z,59.89
2022-08-08T01:20:16.495Z,59.14
2022-08-08T01:24:03.252Z,58.92
2022-08-08T01:26:33.908Z,59.13
2022-08-08T01:29:27.962Z,59.00
2022-08-08T01:33:23.335Z,59.35
2022-08-08T01:36:13.338Z,59.11
2022-08-08T01:38:53.111Z,59.07
2022-08-08T01:41:34.470Z,59.62
2022-08-08T01:44:27.249Z,60.08
2022-08-08T01:48:16.799Z,59.91
2022-08-08T01:50:42.796Z,59.24
2022-08-08T01:55:15.629Z,59.70
2022-08-08T01:56:46.910Z,59.69
2022-08-08T02:00:02.263Z,59.88
2022-08-08T02:03:54.308Z,59.33
2022-08-08T02:06:44.134Z,59.59
2022-08-08T02:10:02.273Z,59.49
2022-08-08T02:12:29.207Z,60.56
2022-08-08T02:15:04.374Z,59.98
2022-08-08T02:18:10.844Z,60.24
2022-08-08T02:21:18.093Z,59.64
2022-08-08T02:23:58.529Z,59.80
2022-08-08T02:26:45.380Z,59.24
2022-08-08T02:29:35.817Z,59.08
2022-08-08T02:32:57.549Z,59.26
2022-08-08T02:36:04.805Z,59.41
2022-08-08T02:39:41.159Z,58.92
2022-08-08T02:42:05.810Z,59.16
2022-08-08T02:45:05.032Z,59.46
2022-08-08T02:47:59.957Z,59.41
2022-08-08T02:50:56.034Z,59.35
2022-08-08T03:06:44.980Z,59.14
2022-08-08T03:10:17.744Z,59.35
2022-08-08T03:15:56.684Z,59.22
2022-08-08T03:18:04.737Z,59.20
2022-08-08T03:20:52.273Z,59.73
2022-08-08T03:23:24.523Z,59.44
2022-08-08T03:26:08.770Z,59.34
2022-08-08T03:28:44.670Z,59.85
2022-08-08T03:31:45.328Z,60.69
2022-08-08T03:34:20.744Z,60.30
2022-08-08T03:37:59.990Z,61.07
2022-08-08T03:40:29.181Z,61.19
2022-08-08T03:43:15.829Z,61.71
2022-08-08T03:46:07.442Z,61.86
2022-08-08T03:49:56.759Z,61.83
2022-08-08T03:51:50.265Z,61.58
2022-08-08T03:55:02.235Z,61.83
2022-08-08T03:58:09.610Z,61.97
2022-08-08T04:00:30.469Z,62.31
2022-08-08T04:03:11.584Z,61.96
2022-08-08T04:05:47.894Z,62.77
2022-08-08T04:08:32.965Z,62.75
2022-08-08T04:11:11.200Z,62.97
2022-08-08T04:14:03.387Z,62.97
2022-08-08T04:16:38.823Z,62.82
2022-08-08T04:20:28.801Z,63.47
2022-08-08T04:22:58.860Z,63.25
2022-08-08T04:25:30.217Z,64.21
2022-08-08T04:30:55.259Z,64.66
2022-08-08T04:33:29.061Z,65.02
2022-08-08T04:37:04.085Z,62.67
2022-08-08T04:40:05.229Z,62.82
2022-08-08T04:42:46.940Z,63.40
2022-08-08T04:45:39.196Z,62.15
2022-08-08T04:48:09.231Z,64.23
2022-08-08T04:50:46.074Z,63.48
2022-08-08T04:54:27.512Z,61.61
2022-08-08T04:57:06.551Z,63.48
2022-08-08T04:59:41.815Z,63.27
2022-08-08T05:02:13.646Z,62.92
2022-08-08T05:04:44.390Z,62.23
2022-08-08T05:07:14.833Z,61.30
2022-08-08T05:10:07.945Z,61.49
2022-08-08T05:13:00.172Z,61.44
2022-08-08T05:16:48.448Z,58.59
2022-08-08T05:18:24.265Z,61.78
2022-08-08T05:20:55.510Z,58.82
2022-08-08T05:23:24.346Z,61.25
2022-08-08T05:26:00.333Z,61.00
2022-08-08T05:28:55.963Z,60.32
2022-08-08T05:32:08.032Z,61.99
2022-08-08T05:34:49.234Z,60.19
2022-08-08T05:37:39.117Z,59.85
2022-08-08T05:40:18.222Z,59.76
2022-08-08T05:42:55.403Z,58.84
2022-08-08T05:45:41.642Z,55.51
2022-08-08T05:48:42.024Z,54.17
2022-08-08T05:51:15.724Z,57.22
2022-08-08T05:54:26.177Z,57.04
2022-08-08T05:59:52.424Z,58.24
2022-08-08T06:03:08.693Z,59.26
2022-08-08T06:05:56.740Z,56.57
2022-08-08T06:08:34.717Z,56.62
2022-08-08T06:11:13.366Z,54.47
2022-08-08T06:13:49.279Z,56.66
2022-08-08T06:16:27.371Z,54.58
2022-08-08T06:19:04.982Z,54.04
2022-08-08T06:21:48.776Z,51.48
2022-08-08T06:24:35.993Z,52.95
2022-08-08T06:27:11.196Z,54.20
2022-08-08T06:33:10.454Z,52.78
2022-08-08T06:36:32.102Z,50.98
2022-08-08T06:39:27.601Z,51.07
2022-08-08T06:42:03.257Z,48.63
2022-08-08T06:44:42.739Z,49.86
2022-08-08T06:47:14.567Z,50.94
2022-08-08T06:50:17.436Z,48.58
2022-08-08T06:52:47.895Z,48.73
2022-08-08T06:56:07.999Z,46.64
2022-08-08T06:58:39.859Z,49.08
2022-08-08T07:01:11.796Z,48.90
2022-08-08T07:04:37.121Z,47.24
2022-08-08T07:07:10.544Z,47.48
2022-08-08T07:10:00.932Z,46.96
2022-08-08T07:12:48.027Z,49.35
2022-08-08T07:16:13.412Z,48.46
2022-08-08T07:19:08.514Z,46.60
2022-08-08T07:22:05.304Z,45.97
2022-08-08T07:24:59.396Z,45.83
2022-08-08T07:28:02.630Z,43.83
2022-08-08T07:31:02.182Z,44.66
2022-08-08T07:33:59.325Z,43.75
2022-08-08T07:36:30.520Z,44.58
2022-08-08T07:39:29.457Z,45.13
2022-08-08T07:42:05.702Z,43.32
2022-08-08T07:45:34.614Z,42.11
2022-08-08T07:48:05.193Z,43.23
2022-08-08T07:51:01.211Z,41.83
2022-08-08T07:54:01.592Z,41.97
2022-08-08T07:56:36.235Z,41.83
2022-08-08T07:59:37.663Z,42.60
2022-08-08T08:02:55.822Z,41.52
2022-08-08T08:05:33.530Z,40.74
2022-08-08T08:08:37.363Z,42.74
2022-08-08T08:14:08.283Z,41.30
2022-08-08T08:17:12.561Z,40.15
2022-08-08T08:19:46.198Z,38.69
2022-08-08T08:23:07.639Z,40.80
2022-08-08T08:25:42.823Z,38.27
2022-08-08T08:28:24.156Z,39.36
2022-08-08T08:30:58.992Z,40.03
2022-08-08T08:34:18.654Z,39.35
2022-08-08T08:37:15.621Z,36.92
2022-08-08T08:40:13.129Z,40.37
2022-08-08T08:43:31.676Z,36.63
2022-08-08T08:46:05.743Z,39.93
2022-08-08T08:48:36.111Z,40.29
2022-08-08T08:51:10.816Z,39.70
2022-08-08T08:53:56.525Z,39.07
2022-08-08T08:56:32.749Z,37.73
2022-08-08T09:02:47.086Z,36.31
2022-08-08T09:05:54.357Z,38.09
2022-08-08T09:14:43.117Z,37.45
2022-08-08T09:17:41.896Z,35.25
2022-08-08T09:21:56.002Z,39.14
2022-08-08T09:24:27.223Z,38.63
2022-08-08T09:36:02.329Z,38.32
2022-08-08T09:39:00.631Z,38.91
2022-08-08T09:42:14.222Z,37.28
2022-08-08T09:44:40.821Z,38.10
2022-08-08T09:47:26.605Z,39.05
2022-08-08T09:50:26.924Z,37.88
2022-08-08T09:53:05.523Z,37.41
2022-08-08T09:56:03.337Z,37.10
2022-08-08T09:58:44.565Z,37.77
2022-08-08T10:01:15.646Z,40.31
2022-08-08T10:04:04.906Z,39.74
2022-08-08T10:06:35.810Z,41.83
2022-08-08T10:09:08.593Z,38.42
2022-08-08T10:12:28.317Z,37.92
2022-08-08T10:18:26.549Z,39.15
2022-08-08T10:21:32.723Z,40.63
2022-08-08T10:24:12.234Z,39.56
2022-08-08T10:27:12.940Z,41.34
2022-08-08T10:36:20.538Z,38.95
2022-08-08T10:38:56.272Z,38.70
2022-08-08T10:41:35.355Z,38.86
2022-08-08T10:44:06.648Z,39.70
2022-08-08T10:46:35.485Z,39.52
2022-08-08T10:49:03.521Z,39.80
2022-08-08T10:51:47.353Z,38.98
2022-08-08T10:54:25.142Z,38.73
2022-08-08T10:57:03.871Z,38.86
2022-08-08T11:02:48.197Z,38.49
2022-08-08T11:05:17.772Z,39.10
2022-08-08T11:08:37.120Z,37.42
2022-08-08T11:12:00.256Z,38.49
2022-08-08T11:14:25.828Z,40.18
2022-08-08T11:16:56.567Z,39.85
2022-08-08T11:19:31.685Z,38.34
2022-08-08T11:22:04.046Z,38.01
2022-08-08T11:24:35.829Z,40.32
2022-08-08T11:27:19.257Z,39.10
2022-08-08T11:31:04.056Z,35.97
2022-08-08T11:39:19.957Z,37.54
2022-08-08T11:42:13.878Z,38.13
2022-08-08T11:44:42.957Z,37.94
2022-08-08T11:48:04.531Z,37.53
2022-08-08T11:51:00.773Z,38.29
2022-08-08T11:54:31.529Z,39.27
2022-08-08T11:57:13.986Z,37.91
2022-08-08T12:00:02.772Z,39.88
2022-08-08T12:03:30.928Z,37.24
2022-08-08T12:06:18.764Z,37.74
2022-08-08T12:12:07.785Z,38.44
2022-08-08T12:14:35.410Z,37.40
2022-08-08T12:20:59.708Z,40.55
2022-08-08T12:23:43.130Z,39.43
2022-08-08T12:26:58.460Z,40.53
2022-08-08T12:29:53.793Z,39.11
2022-08-08T12:32:49.937Z,37.88
2022-08-08T12:35:52.427Z,38.33
2022-08-08T12:38:30.396Z,37.00
2022-08-08T12:41:35.188Z,35.78
2022-08-08T12:44:48.229Z,36.97
2022-08-08T12:48:04.257Z,37.71
2022-08-08T12:50:50.030Z,36.70
2022-08-08T12:54:04.675Z,36.97
2022-08-08T13:00:13.431Z,36.22
2022-08-08T13:03:22.938Z,35.77
2022-08-08T13:06:06.631Z,36.53
2022-08-08T13:08:56.405Z,38.27
2022-08-08T13:12:27.879Z,38.25
2022-08-08T13:15:44.388Z,36.79
2022-08-08T13:18:55.675Z,36.24
2022-08-08T13:21:36.429Z,35.44
2022-08-08T13:24:48.446Z,35.78
2022-08-08T13:27:42.092Z,36.40
2022-08-08T13:31:24.184Z,36.45
2022-08-08T13:34:42.136Z,36.71
2022-08-08T13:37:19.886Z,36.66
2022-08-08T13:40:46.149Z,38.08
2022-08-08T13:43:40.308Z,37.90
2022-08-08T13:46:26.532Z,37.03
2022-08-08T13:49:11.194Z,36.08
2022-08-08T13:52:04.916Z,36.67
2022-08-08T13:54:44.009Z,36.75
2022-08-08T13:58:08.407Z,36.75
2022-08-08T14:07:42.394Z,36.71
2022-08-08T14:10:41.947Z,38.18
2022-08-08T14:17:58.066Z,36.67
2022-08-08T14:20:55.893Z,36.62
2022-08-08T14:24:07.942Z,36.95
2022-08-08T14:26:52.096Z,35.91
2022-08-08T14:29:30.424Z,34.97
2022-08-08T14:32:53.117Z,37.25
2022-08-08T14:35:35.039Z,36.08
2022-08-08T14:38:58.671Z,35.78
2022-08-08T14:42:07.722Z,36.04
2022-08-08T14:44:39.405Z,36.75
2022-08-08T14:47:57.855Z,36.39
2022-08-08T14:50:38.793Z,34.99
2022-08-08T14:53:23.851Z,35.79
2022-08-08T14:56:02.233Z,36.04
2022-08-08T14:58:36.102Z,36.47
2022-08-08T15:01:07.468Z,36.03
2022-08-08T15:04:16.461Z,37.12
2022-08-08T15:06:48.545Z,37.90
2022-08-08T15:09:44.034Z,35.93
2022-08-08T15:12:12.384Z,37.56
2022-08-08T15:15:09.283Z,35.93
2022-08-08T15:18:03.176Z,35.58
2022-08-08T15:20:56.058Z,36.35
2022-08-08T15:23:23.421Z,36.02
2022-08-08T15:26:01.270Z,36.29
2022-08-08T15:28:34.119Z,35.48
2022-08-08T15:32:17.343Z,35.52
2022-08-08T15:34:40.894Z,34.58
2022-08-08T15:37:10.677Z,33.61
2022-08-08T15:39:46.447Z,34.16
2022-08-08T15:42:31.404Z,33.63
2022-08-08T15:45:06.171Z,34.20
2022-08-08T15:48:15.194Z,34.98
2022-08-08T15:51:06.371Z,33.64
2022-08-08T15:53:40.564Z,34.09
2022-08-08T15:57:13.259Z,35.28
2022-08-08T16:03:51.670Z,36.07
2022-08-08T16:06:47.446Z,35.71
2022-08-08T16:13:04.197Z,35.56
2022-08-08T16:13:10.007Z,35.99
2022-08-08T16:15:24.630Z,35.84
2022-08-08T16:18:17.182Z,35.72
2022-08-08T16:20:50.977Z,36.19
2022-08-08T16:23:19.479Z,36.20
2022-08-08T16:26:19.201Z,36.16
2022-08-08T16:29:36.974Z,36.39
2022-08-08T16:32:29.963Z,36.66
2022-08-08T16:35:25.307Z,37.63
2022-08-08T16:37:56.108Z,37.44
2022-08-08T16:40:25.250Z,37.41
2022-08-08T16:42:56.947Z,37.17
2022-08-08T16:46:37.728Z,37.77
2022-08-08T16:48:13.586Z,38.13
2022-08-08T16:50:41.885Z,37.90
2022-08-08T16:55:19.674Z,37.94
2022-08-08T16:56:00.498Z,38.52
2022-08-08T16:58:53.074Z,38.05
2022-08-08T17:01:46.120Z,38.99
2022-08-08T17:04:41.687Z,38.61
2022-08-08T17:10:29.144Z,39.25
2022-08-08T17:12:56.664Z,38.64
2022-08-08T17:15:25.032Z,39.88
2022-08-08T17:18:04.618Z,39.83
2022-08-08T17:20:39.896Z,38.98
2022-08-08T17:23:18.146Z,39.22
2022-08-08T17:25:57.712Z,38.20
2022-08-08T17:29:54.840Z,38.08
2022-08-08T17:34:37.062Z,38.78
2022-08-08T17:37:20.184Z,38.92
2022-08-08T17:40:06.111Z,39.08
2022-08-08T17:42:41.148Z,38.67
2022-08-08T17:45:23.721Z,39.23
2022-08-08T17:49:06.180Z,39.23
2022-08-08T17:52:00.618Z,40.00
2022-08-08T17:54:56.318Z,39.22
2022-08-08T18:01:05.675Z,39.05
2022-08-08T18:04:31.240Z,39.37
2022-08-08T18:07:03.080Z,39.72
2022-08-08T18:09:31.370Z,39.32
2022-08-08T18:12:12.728Z,39.76
2022-08-08T18:15:31.575Z,39.20
2022-08-08T18:18:29.489Z,39.66
2022-08-08T18:22:01.285Z,38.97
2022-08-08T18:28:23.623Z,39.03
2022-08-08T18:32:09.358Z,39.34
2022-08-08T18:34:42.696Z,38.61
2022-08-08T18:37:33.695Z,38.22
2022-08-08T18:39:59.537Z,37.91
2022-08-08T18:42:53.481Z,38.49
2022-08-08T18:46:00.430Z,38.40
2022-08-08T18:48:38.264Z,38.06
2022-08-08T18:57:44.833Z,39.45
2022-08-08T19:00:38.912Z,39.87
2022-08-08T19:04:05.266Z,39.91
2022-08-08T19:06:49.576Z,39.98
2022-08-08T19:09:17.404Z,39.72
2022-08-08T19:11:51.707Z,40.43
2022-08-08T19:14:23.257Z,40.09
2022-08-08T19:17:28.885Z,40.05
2022-08-08T19:23:18.378Z,39.59
2022-08-08T19:26:19.612Z,39.13
2022-08-08T19:28:44.639Z,39.41
2022-08-08T19:31:16.961Z,39.29
2022-08-08T19:34:04.368Z,39.58
2022-08-08T19:37:00.222Z,39.20
2022-08-08T19:39:35.415Z,39.30
2022-08-08T19:42:06.800Z,39.12
2022-08-08T19:44:45.685Z,38.97
2022-08-08T19:47:24.812Z,39.23
2022-08-08T19:50:17.254Z,39.49
2022-08-08T19:52:54.380Z,39.91
2022-08-08T19:55:23.666Z,39.38
2022-08-08T19:58:21.482Z,40.12
2022-08-08T20:01:18.351Z,40.18
2022-08-08T20:04:00.252Z,39.54
2022-08-08T20:06:56.915Z,39.30
2022-08-08T20:09:32.361Z,38.84
2022-08-08T20:12:00.397Z,39.53
2022-08-08T20:14:35.387Z,39.56
2022-08-08T20:17:28.358Z,39.07
2022-08-08T20:19:56.977Z,39.46
2022-08-08T20:22:53.847Z,39.42
2022-08-08T20:25:24.682Z,39.04
2022-08-08T20:27:55.906Z,39.52
2022-08-08T20:30:52.928Z,39.62
2022-08-08T20:36:08.722Z,39.73
2022-08-08T20:39:03.334Z,39.29
2022-08-08T20:41:30.983Z,39.72
2022-08-08T20:44:02.194Z,39.66
2022-08-08T20:46:30.115Z,39.29
2022-08-08T20:49:22.843Z,39.21
2022-08-08T20:52:25.398Z,38.66
2022-08-08T20:54:53.439Z,39.10
2022-08-08T20:57:47.551Z,39.49
2022-08-08T21:04:27.375Z,38.49
2022-08-08T21:06:56.775Z,39.04
2022-08-08T21:09:31.768Z,38.93
2022-08-08T21:12:13.207Z,38.78
2022-08-08T21:14:41.329Z,39.28
2022-08-08T21:17:17.310Z,39.62
2022-08-08T21:23:05.310Z,39.37
2022-08-08T21:26:01.797Z,39.22
2022-08-08T21:28:35.775Z,39.75
2022-08-08T21:31:22.972Z,39.78
2022-08-08T21:33:52.780Z,39.96
2022-08-08T21:36:28.334Z,40.08
2022-08-08T21:38:58.903Z,39.94
2022-08-08T21:41:38.020Z,39.83
2022-08-08T22:08:24.065Z,41.04
2022-08-08T22:10:54.383Z,41.43
2022-08-08T22:13:22.969Z,41.32
2022-08-08T22:15:58.314Z,41.24
2022-08-08T22:18:33.046Z,41.49
2022-08-08T22:21:13.740Z,41.66
2022-08-08T22:23:50.723Z,41.46
2022-08-08T22:27:02.207Z,41.88
2022-08-08T22:30:01.812Z,41.83
2022-08-08T22:32:49.268Z,42.13
2022-08-08T22:35:23.578Z,42.28
2022-08-08T22:37:54.625Z,42.27
2022-08-08T22:40:24.754Z,41.83
2022-08-08T22:43:01.104Z,41.41
2022-08-08T22:45:29.129Z,42.32
2022-08-08T22:47:58.682Z,42.16
2022-08-08T22:50:28.597Z,42.23
2022-08-08T22:54:32.196Z,42.79
2022-08-08T22:55:58.820Z,42.36
2022-08-08T22:58:33.281Z,42.82
2022-08-08T23:01:26.861Z,42.87
2022-08-08T23:04:31.869Z,42.75
2022-08-08T23:07:03.163Z,42.88
2022-08-08T23:09:39.378Z,43.19
2022-08-08T23:12:39.978Z,42.77
2022-08-08T23:16:37.965Z,43.29
2022-08-08T23:18:28.383Z,43.28
2022-08-08T23:21:03.690Z,43.36
2022-08-08T23:23:33.236Z,43.65
2022-08-08T23:26:55.776Z,43.32
2022-08-08T23:29:55.841Z,43.70
2022-08-08T23:32:51.393Z,43.99
2022-08-08T23:35:19.523Z,44.19
2022-08-08T23:38:02.614Z,44.16
2022-08-08T23:40:32.061Z,44.26
2022-08-08T23:43:02.745Z,44.53
2022-08-08T23:48:59.930Z,44.88
2022-08-08T23:49:02.866Z,44.65
2022-08-08T23:52:05.121Z,44.55
2022-08-08T23:54:41.864Z,44.46
2022-08-08T23:57:25.114Z,44.45
